Time;durP1;ratioP1;P1;durP2;ratioP2;P2;SDS_P1;SDS_P2;PMS_P1;PMS_P2;Temp;Humidity;BMP_temperature;BMP_pressure;BME280_temperature;BME280_humidity;BME280_pressure;Samples;Min_cycle;Max_cycle;Signal;HPM_P1;HPM_P2
2021/09/12 00:02:47;;;;;;;2.37;1.75;;;;;;;17.52;48.86;99890.66;4374971;32;34062;-92
2021/09/12 00:05:56;;;;;;;2.60;2.42;;;;;;;17.62;49.00;99888.50;4384945;32;34588;-93
2021/09/12 00:08:44;;;;;;;0.93;0.93;;;;;;;17.52;48.48;99886.13;4386360;32;33555;-93
2021/09/12 00:11:21;;;;;;;3.05;2.10;;;;;;;17.37;49.28;99878.22;4384712;32;35627;-95
2021/09/12 00:13:49;;;;;;;1.75;1.65;;;;;;;17.48;48.35;99877.75;4371592;32;35267;-95
2021/09/12 00:16:18;;;;;;;1.62;1.52;;;;;;;17.53;48.11;99876.19;4385023;32;34541;-93
2021/09/12 00:19:07;;;;;;;2.53;2.33;;;;;;;17.47;48.28;99873.41;4396885;32;32813;-94
2021/09/12 00:21:35;;;;;;;1.35;1.25;;;;;;;17.31;49.48;99878.94;4396851;32;33726;-94
2021/09/12 00:24:43;;;;;;;13.05;1.40;;;;;;;17.50;48.82;99880.06;4384598;32;33949;-93
2021/09/12 00:27:17;;;;;;;2.50;1.62;;;;;;;17.50;48.36;99879.25;4384582;32;33773;-95
2021/09/12 00:30:10;;;;;;;2.58;1.75;;;;;;;17.23;49.56;99884.38;4376787;32;32718;-93
2021/09/12 00:32:59;;;;;;;1.87;1.40;;;;;;;17.23;49.21;99887.06;4396384;32;33175;-94
2021/09/12 00:36:07;;;;;;;0.98;0.98;;;;;;;17.33;48.98;99885.78;4385570;32;34501;-94
2021/09/12 00:39:15;;;;;;;2.65;2.25;;;;;;;17.32;48.90;99886.81;4365522;32;33544;-89
2021/09/12 00:42:11;;;;;;;2.08;1.87;;;;;;;17.18;49.87;99882.25;4376580;32;33543;-90
2021/09/12 00:44:59;;;;;;;1.12;1.02;;;;;;;17.21;48.98;99886.44;4370956;32;33234;-94
2021/09/12 00:47:47;;;;;;;4.97;1.80;;;;;;;17.24;49.19;99873.47;4363082;32;34514;-95
2021/09/12 00:50:31;;;;;;;11.48;2.33;;;;;;;17.15;50.19;99877.25;4380709;32;34206;-93
2021/09/12 00:53:22;;;;;;;2.12;1.85;;;;;;;17.13;50.42;99875.75;4395654;32;33148;-95
2021/09/12 00:56:12;;;;;;;1.80;1.70;;;;;;;17.16;50.06;99880.78;4373353;32;33218;-92
2021/09/12 00:59:01;;;;;;;1.67;1.58;;;;;;;17.09;50.06;99875.28;4385115;32;34780;-93
2021/09/12 01:01:52;;;;;;;1.92;1.83;;;;;;;17.02;51.02;99876.22;4374426;32;34413;-93
2021/09/12 01:04:41;;;;;;;1.83;1.35;;;;;;;17.11;51.00;99870.59;4374564;32;32623;-94
2021/09/12 01:07:12;;;;;;;3.50;2.55;;;;;;;17.03;51.00;99867.12;4367567;32;33458;-93
2021/09/12 01:10:02;;;;;;;1.37;1.05;;;;;;;17.06;50.36;99866.78;4385515;32;34386;-94
2021/09/12 01:12:34;;;;;;;2.17;1.77;;;;;;;17.05;50.89;99870.47;4372177;32;34193;-90
2021/09/12 01:15:18;;;;;;;2.78;2.20;;;;;;;17.05;49.93;99874.00;4363910;32;33845;-94
2021/09/12 01:18:29;;;;;;;1.30;1.30;;;;;;;17.13;49.65;99868.53;4391083;32;20440;-90
2021/09/12 01:21:19;;;;;;;1.92;1.83;;;;;;;17.10;49.38;99865.38;4381460;32;34452;-94
2021/09/12 01:24:10;;;;;;;1.80;1.70;;;;;;;16.86;49.77;99870.97;4386746;32;33345;-92
2021/09/12 01:26:59;;;;;;;1.52;1.42;;;;;;;16.96;49.77;99860.81;4375893;32;32769;-92
2021/09/12 01:30:08;;;;;;;1.67;1.58;;;;;;;16.83;50.02;99868.66;4386312;32;33336;-95
2021/09/12 01:32:37;;;;;;;0.88;0.88;;;;;;;16.71;50.68;99870.94;4374433;32;35630;-93
2021/09/12 01:35:32;;;;;;;2.67;2.33;;;;;;;16.47;51.48;99876.53;4386366;32;33438;-92
2021/09/12 01:38:00;;;;;;;4.32;1.50;;;;;;;16.69;50.69;99878.37;4386693;32;34893;-94
2021/09/12 01:40:52;;;;;;;1.10;1.10;;;;;;;16.50;51.40;99873.47;4375818;32;32665;-91
2021/09/12 01:44:01;;;;;;;5.72;1.85;;;;;;;16.59;51.11;99872.41;4391109;32;35799;-93
2021/09/12 01:46:32;;;;;;;1.00;1.00;;;;;;;16.56;50.99;99875.47;4375804;32;34584;-95
2021/09/12 01:49:20;;;;;;;1.10;1.10;;;;;;;16.46;51.09;99879.41;4400449;32;33995;-92
2021/09/12 01:52:13;;;;;;;2.03;1.30;;;;;;;16.10;52.66;99892.53;4377213;32;33153;-94
2021/09/12 01:54:41;;;;;;;2.58;2.30;;;;;;;16.26;52.14;99881.66;4376100;32;34837;-94
2021/09/12 01:57:11;;;;;;;1.83;1.55;;;;;;;16.31;51.89;99887.34;4381985;32;33771;-93
2021/09/12 01:59:39;;;;;;;1.75;1.65;;;;;;;16.44;51.17;99889.50;4400629;32;32583;-91
2021/09/12 02:02:28;;;;;;;1.80;1.70;;;;;;;16.41;51.22;99889.84;4365029;32;33291;-93
2021/09/12 02:05:32;;;;;;;1.67;1.55;;;;;;;16.37;51.43;99880.47;4382382;32;34683;-91
2021/09/12 02:08:01;;;;;;;5.00;3.42;;;;;;;16.28;51.55;99886.87;4397876;32;33742;-93
2021/09/12 02:10:50;;;;;;;2.87;2.67;;;;;;;16.24;52.22;99878.34;4375823;32;32642;-93
2021/09/12 02:13:24;;;;;;;3.83;1.80;;;;;;;16.36;51.41;99881.44;4385477;32;33125;-93
2021/09/12 02:15:58;;;;;;;11.75;2.55;;;;;;;16.15;52.20;99894.69;4379728;32;34728;-92
2021/09/12 02:19:09;;;;;;;1.65;1.52;;;;;;;16.29;51.76;99881.34;4382011;32;34581;-91
2021/09/12 02:22:17;;;;;;;1.37;1.25;;;;;;;16.31;51.48;99883.81;4394051;32;33757;-93
2021/09/12 02:24:45;;;;;;;3.28;1.85;;;;;;;16.24;51.69;99885.56;4379019;32;33393;-95
2021/09/12 02:27:15;;;;;;;3.75;2.37;;;;;;;16.33;51.42;99888.00;4393088;32;35142;-93
2021/09/12 02:29:44;;;;;;;1.42;1.33;;;;;;;16.30;51.55;99887.53;4381925;32;33225;-94
2021/09/12 02:32:33;;;;;;;3.35;1.40;;;;;;;16.12;52.31;99887.81;4367647;32;32472;-92
2021/09/12 02:35:02;;;;;;;3.62;1.50;;;;;;;16.29;51.71;99888.53;4379068;32;34186;-93
2021/09/12 02:37:52;;;;;;;2.05;1.95;;;;;;;16.26;51.69;99895.09;4377211;32;35199;-94
2021/09/12 02:40:20;;;;;;;2.10;1.67;;;;;;;16.29;51.29;99897.44;4366203;32;34101;-94
2021/09/12 02:43:29;;;;;;;2.12;1.92;;;;;;;16.28;51.28;99893.09;4365320;32;32358;-95
2021/09/12 02:45:59;;;;;;;2.10;1.65;;;;;;;16.26;51.42;99895.09;4367656;32;33469;-93
2021/09/12 02:49:07;;;;;;;2.92;1.48;;;;;;;16.30;51.25;99893.75;4374540;32;34701;-94
2021/09/12 02:51:36;;;;;;;1.27;1.25;;;;;;;16.27;51.69;99890.56;4379180;32;33202;-93
2021/09/12 02:54:44;;;;;;;1.52;1.42;;;;;;;16.30;51.60;99893.75;4384965;32;32991;-95
2021/09/12 02:57:12;;;;;;;1.92;1.52;;;;;;;16.24;51.52;99888.25;4382623;32;33736;-93
2021/09/12 03:00:00;;;;;;;0.85;0.85;;;;;;;16.26;51.63;99899.66;4370790;32;34677;-94
2021/09/12 03:02:48;;;;;;;1.90;1.65;;;;;;;16.22;51.76;99898.34;4383207;32;33783;-94
2021/09/12 03:05:56;;;;;;;1.52;1.42;;;;;;;16.10;52.15;99903.28;4376805;32;33095;-96
2021/09/12 03:08:44;;;;;;;0.85;0.85;;;;;;;16.17;52.03;99896.19;4381842;32;34404;-94
2021/09/12 03:11:30;;;;;;;4.28;2.08;;;;;;;16.22;51.64;99899.16;4350286;32;34068;-94
2021/09/12 03:14:34;;;;;;;1.20;1.12;;;;;;;16.09;53.03;99901.59;4363261;32;34294;-93
2021/09/12 03:17:10;;;;;;;4.00;2.83;;;;;;;16.10;53.31;99899.72;4386109;32;33353;-94
2021/09/12 03:19:43;;;;;;;1.87;1.70;;;;;;;15.91;54.32;99901.03;4349179;32;34411;-93
2021/09/12 03:22:30;;;;;;;1.95;1.85;;;;;;;15.93;54.18;99899.00;4356945;32;34279;-95
2021/09/12 03:25:18;;;;;;;1.67;1.58;;;;;;;16.25;52.53;99895.28;4360070;32;33623;-93
2021/09/12 03:27:52;;;;;;;2.85;2.65;;;;;;;16.04;52.83;99901.28;4355738;32;32952;-92
2021/09/12 03:30:40;;;;;;;2.17;2.08;;;;;;;15.95;53.31;99905.03;4378107;32;33004;-91
2021/09/12 03:33:24;;;;;;;1.80;1.20;;;;;;;16.02;52.69;99895.25;4378204;32;35204;-91
2021/09/12 03:35:56;;;;;;;7.30;2.87;;;;;;;16.21;51.86;99891.28;4372679;32;33459;-95
2021/09/12 03:38:46;;;;;;;1.62;1.52;;;;;;;16.23;51.69;99895.47;4378440;32;32114;-95
2021/09/12 03:41:15;;;;;;;1.70;1.60;;;;;;;16.00;52.13;99896.44;4355093;32;33177;-93
2021/09/12 03:44:03;;;;;;;2.85;1.70;;;;;;;15.93;53.04;99901.69;4360865;32;35261;-93
2021/09/12 03:46:38;;;;;;;7.22;2.22;;;;;;;16.00;53.16;99901.81;4373186;32;33901;-93
2021/09/12 03:49:45;;;;;;;1.92;1.83;;;;;;;16.14;52.22;99901.06;4363612;32;32246;-94
2021/09/12 03:52:16;;;;;;;9.30;1.73;;;;;;;16.08;52.39;99905.31;4372173;32;32855;-93
2021/09/12 03:54:45;;;;;;;2.03;1.92;;;;;;;16.02;52.25;99911.38;4360021;32;35720;-92
2021/09/12 03:57:14;;;;;;;1.30;1.27;;;;;;;15.97;52.57;99897.62;4372160;32;33963;-91
2021/09/12 03:59:42;;;;;;;1.70;1.60;;;;;;;15.84;53.21;99902.72;4372180;32;32817;-92
2021/09/12 04:02:10;;;;;;;2.33;2.20;;;;;;;15.67;54.37;99903.00;4359746;32;33118;-92
2021/09/12 04:05:03;;;;;;;1.33;1.23;;;;;;;15.59;54.58;99909.19;4371841;32;34125;-94
2021/09/12 04:07:31;;;;;;;1.17;1.17;;;;;;;15.77;54.12;99901.75;4371695;32;33324;-94
2021/09/12 04:10:04;;;;;;;13.38;2.92;;;;;;;15.83;53.53;99900.22;4384342;32;32649;-94
2021/09/12 04:12:33;;;;;;;2.45;1.90;;;;;;;15.95;52.91;99904.19;4371659;32;32755;-93
2021/09/12 04:15:27;;;;;;;2.03;1.87;;;;;;;15.88;53.44;99895.16;4374913;32;34457;-91
2021/09/12 04:18:20;;;;;;;1.30;1.20;;;;;;;15.98;52.96;99895.78;4371204;32;33134;-95
2021/09/12 04:20:48;;;;;;;1.77;1.42;;;;;;;15.97;52.82;99894.94;4367336;32;33601;-93
2021/09/12 04:23:36;;;;;;;;;;;;;;;15.98;52.92;99901.16;4361329;32;33182;-94
2021/09/12 04:26:24;;;;;;;2.72;2.00;;;;;;;15.94;52.82;99899.81;4369070;32;34285;-92
2021/09/12 04:29:12;;;;;;;1.58;1.48;;;;;;;15.90;53.14;99898.50;4371697;32;33369;-92
2021/09/12 04:31:43;;;;;;;1.42;1.37;;;;;;;15.73;53.82;99903.13;4371906;32;32563;-94
2021/09/12 04:34:16;;;;;;;1.87;1.77;;;;;;;15.75;53.38;99910.97;4373460;32;33202;-92
2021/09/12 04:37:24;;;;;;;6.82;1.92;;;;;;;15.73;53.89;99904.97;4363523;32;34521;-90
2021/09/12 04:40:00;;;;;;;4.87;2.15;;;;;;;15.80;53.60;99906.78;4378019;32;34632;-92
2021/09/12 04:42:48;;;;;;;1.12;1.12;;;;;;;15.82;53.46;99910.13;4381724;32;32752;-93
2021/09/12 04:45:36;;;;;;;6.65;1.87;;;;;;;15.79;53.63;99907.78;4382708;32;34279;-90
2021/09/12 04:48:05;;;;;;;2.08;1.90;;;;;;;15.65;53.68;99910.34;4386158;32;34521;-93
2021/09/12 04:50:34;;;;;;;1.52;1.42;;;;;;;15.70;53.75;99910.69;4399073;32;32740;-92
2021/09/12 04:53:03;;;;;;;2.03;1.90;;;;;;;15.58;54.52;99910.22;4382417;32;33282;-93
2021/09/12 04:56:11;;;;;;;1.02;1.02;;;;;;;15.62;54.77;99918.75;4378526;32;33161;-92
2021/09/12 04:58:39;;;;;;;2.22;2.12;;;;;;;15.67;54.58;99916.41;4373663;32;35729;-94
2021/09/12 05:01:27;;;;;;;2.03;1.92;;;;;;;15.61;55.56;99920.62;4391349;32;36728;-93
2021/09/12 05:03:57;;;;;;;2.33;2.12;;;;;;;15.57;55.34;99921.94;4374962;32;33177;-93
2021/09/12 05:06:48;;;;;;;1.75;1.67;;;;;;;15.64;54.94;99916.72;4389243;32;33204;-93
2021/09/12 05:09:35;;;;;;;1.42;1.35;;;;;;;15.98;54.17;99918.06;4379333;32;35921;-93
2021/09/12 05:12:31;;;;;;;1.40;1.33;;;;;;;15.98;53.54;99928.00;4376753;32;34637;-93
2021/09/12 05:15:18;;;;;;;2.17;1.98;;;;;;;16.05;53.62;99929.78;4385639;32;32893;-92
2021/09/12 05:17:58;;;;;;;1.90;1.70;;;;;;;16.03;54.07;99929.12;4398714;32;33741;-94
2021/09/12 05:20:48;;;;;;;3.10;1.58;;;;;;;16.12;54.42;99927.22;4398649;32;34581;-91
2021/09/12 05:23:32;;;;;;;2.78;2.58;;;;;;;16.04;54.80;99930.81;4386810;32;34786;-93
2021/09/12 05:26:01;;;;;;;2.30;1.95;;;;;;;16.03;54.71;99926.44;4386241;32;32894;-92
2021/09/12 05:28:30;;;;;;;1.90;1.65;;;;;;;16.46;53.86;99920.53;4373118;32;33852;-93
2021/09/12 05:31:19;;;;;;;2.22;2.12;;;;;;;16.61;53.20;99923.28;4385044;32;35511;-93
2021/09/12 05:33:52;;;;;;;3.90;2.22;;;;;;;16.65;52.72;99925.41;4383890;32;34132;-93
2021/09/12 05:36:20;;;;;;;2.45;2.25;;;;;;;16.62;53.12;99928.44;4400559;32;32585;-93
2021/09/12 05:39:09;;;;;;;1.75;1.65;;;;;;;16.74;53.08;99934.25;4395229;32;33490;-90
2021/09/12 05:41:37;;;;;;;2.47;1.90;;;;;;;16.71;53.25;99929.25;4381036;32;34045;-93
2021/09/12 05:44:27;;;;;;;2.67;2.47;;;;;;;16.89;53.31;99929.75;4387907;32;34242;-91
2021/09/12 05:46:54;;;;;;;1.67;1.62;;;;;;;16.88;53.12;99928.91;4385135;32;34816;-92
2021/09/12 05:49:25;;;;;;;6.10;2.78;;;;;;;16.76;53.13;99924.13;4385169;32;35269;-89
2021/09/12 05:52:00;;;;;;;4.40;2.40;;;;;;;16.76;53.03;99924.13;4385417;32;35154;-93
2021/09/12 05:54:31;;;;;;;1.85;1.75;;;;;;;17.00;52.79;99926.63;4385095;32;33811;-92
2021/09/12 05:57:34;;;;;;;2.78;2.50;;;;;;;17.14;52.54;99933.88;4400539;32;34301;-91
2021/09/12 06:00:06;;;;;;;3.42;2.28;;;;;;;17.28;52.28;99930.41;4387957;32;34225;-93
2021/09/12 06:02:59;;;;;;;2.42;2.22;;;;;;;17.39;52.15;99930.81;4376548;32;34135;-92
2021/09/12 06:05:39;;;;;;;1.02;1.02;;;;;;;17.64;51.60;99926.81;4377468;32;33833;-89
2021/09/12 06:08:27;;;;;;;2.45;2.03;;;;;;;17.91;51.26;99936.91;4388971;32;32237;-91
2021/09/12 06:10:58;;;;;;;2.45;2.25;;;;;;;17.74;52.05;99930.91;4380127;32;33521;-92
2021/09/12 06:13:27;;;;;;;5.47;1.95;;;;;;;17.99;51.23;99931.44;4365455;32;36111;-94
2021/09/12 06:15:56;;;;;;;2.40;1.83;;;;;;;18.23;50.80;99923.88;4387078;32;33591;-91
2021/09/12 06:18:45;;;;;;;1.70;1.60;;;;;;;18.58;49.88;99925.72;4330984;32;34366;-93
2021/09/12 06:21:20;;;;;;;3.65;2.65;;;;;;;18.58;50.31;99925.72;4347968;32;34155;-92
2021/09/12 06:23:50;;;;;;;5.55;1.98;;;;;;;18.73;49.89;99922.97;4340973;32;36813;-89
2021/09/12 06:26:51;;;;;;;1.90;1.80;;;;;;;18.87;49.35;99920.22;4338970;32;33209;-92
2021/09/12 06:29:28;;;;;;;2.30;1.98;;;;;;;19.04;49.08;99924.31;4334439;32;33142;-92
2021/09/12 06:31:57;;;;;;;3.42;1.40;;;;;;;19.32;48.66;99916.22;4339818;32;34002;-90
2021/09/12 06:34:45;;;;;;;1.73;1.62;;;;;;;19.32;48.55;99909.00;4322404;32;33767;-93
2021/09/12 06:37:44;;;;;;;1.62;1.52;;;;;;;19.74;46.60;99922.31;4333121;32;34644;-90
2021/09/12 06:40:32;;;;;;;2.67;1.40;;;;;;;19.55;47.58;99916.81;4331139;32;32581;-92
2021/09/12 06:43:05;;;;;;;4.18;1.30;;;;;;;19.94;46.48;99920.56;4340083;32;32847;-91
2021/09/12 06:45:40;;;;;;;2.33;1.95;;;;;;;20.18;46.93;99925.47;4340502;32;34431;-92
2021/09/12 06:48:45;;;;;;;2.12;1.80;;;;;;;20.27;46.74;99918.03;4340198;32;33813;-94
2021/09/12 06:51:37;;;;;;;1.55;1.45;;;;;;;20.45;46.99;99918.28;4372820;32;32002;-93
2021/09/12 06:54:27;;;;;;;2.37;1.73;;;;;;;20.81;45.37;99912.28;4375561;32;35096;-90
2021/09/12 06:57:15;;;;;;;7.62;1.67;;;;;;;21.10;43.66;99914.66;4357440;32;34328;-92
2021/09/12 06:59:46;;;;;;;1.45;1.40;;;;;;;20.60;44.75;99920.59;4373338;32;33954;-92
2021/09/12 07:02:36;;;;;;;1.50;1.40;;;;;;;20.83;45.01;99918.34;4370443;32;32923;-92
2021/09/12 07:05:41;;;;;;;2.65;1.62;;;;;;;21.18;43.95;99917.13;4373552;32;33391;-93
2021/09/12 07:08:10;;;;;;;6.05;1.58;;;;;;;21.40;42.93;99924.00;4347083;32;34579;-90
2021/09/12 07:11:00;;;;;;;1.70;1.52;;;;;;;21.56;43.08;99914.59;4346724;32;32677;-93
2021/09/12 07:13:29;;;;;;;1.58;1.48;;;;;;;22.07;41.21;99918.19;4372893;32;35578;-90
2021/09/12 07:16:24;;;;;;;1.67;1.27;;;;;;;22.29;40.12;99922.28;4371993;32;32671;-88
2021/09/12 07:19:11;;;;;;;1.62;1.52;;;;;;;22.32;41.23;99922.69;4370308;32;34654;-95
2021/09/12 07:21:55;;;;;;;0.98;0.98;;;;;;;22.24;41.01;99922.09;4374248;32;34875;-91
2021/09/12 07:24:41;;;;;;;1.25;1.15;;;;;;;22.44;40.24;99925.56;4360345;32;32757;-91
2021/09/12 07:27:30;;;;;;;2.25;1.40;;;;;;;22.49;40.20;99928.47;4374302;32;33971;-90
2021/09/12 07:30:25;;;;;;;1.73;1.35;;;;;;;22.31;39.31;99923.75;4360698;32;34876;-90
2021/09/12 07:33:15;;;;;;;1.30;1.25;;;;;;;23.02;39.38;99921.66;4369450;32;34717;-92
2021/09/12 07:36:04;;;;;;;1.67;1.58;;;;;;;22.84;37.91;99925.09;4360867;32;33286;-92
2021/09/12 07:38:41;;;;;;;1.50;1.40;;;;;;;23.32;37.93;99925.37;4354998;32;33187;-91
2021/09/12 07:41:11;;;;;;;1.65;1.55;;;;;;;23.55;37.50;99928.28;4372283;32;35677;-93
2021/09/12 07:44:16;;;;;;;21.62;2.25;;;;;;;23.53;36.80;99924.97;4372194;32;33611;-89
2021/09/12 07:46:44;;;;;;;1.33;1.27;;;;;;;23.60;36.53;99921.12;4359320;32;33872;-92
2021/09/12 07:49:14;;;;;;;3.10;2.05;;;;;;;23.33;35.91;99927.03;4366216;32;33669;-92
2021/09/12 07:51:42;;;;;;;9.63;1.35;;;;;;;23.69;36.31;99927.91;4394657;32;35303;-90
2021/09/12 07:54:10;;;;;;;1.85;1.73;;;;;;;23.79;36.77;99920.06;4374911;32;33507;-92
2021/09/12 07:56:39;;;;;;;2.35;1.40;;;;;;;23.89;35.77;99932.13;4401369;32;34298;-93
2021/09/12 07:59:09;;;;;;;1.70;1.33;;;;;;;24.15;35.50;99925.53;4398950;32;33312;-93
2021/09/12 08:01:36;;;;;;;0.77;0.77;;;;;;;23.83;35.41;99927.53;4392247;32;34430;-94
2021/09/12 08:04:07;;;;;;;1.77;1.12;;;;;;;24.46;35.59;99926.16;4387476;32;33663;-89
2021/09/12 08:06:35;;;;;;;6.03;2.05;;;;;;;24.79;34.78;99920.28;4394306;32;33385;-88
2021/09/12 08:09:04;;;;;;;1.85;1.40;;;;;;;24.96;35.06;99924.84;4385778;32;33197;-90
2021/09/12 08:11:40;;;;;;;4.00;1.77;;;;;;;24.70;35.00;99914.34;4398865;32;35613;-91
2021/09/12 08:14:24;;;;;;;1.33;1.10;;;;;;;25.40;33.56;99924.31;4397990;32;35587;-90
2021/09/12 08:16:55;;;;;;;7.70;1.67;;;;;;;25.48;33.75;99923.97;4399499;32;32202;-92
2021/09/12 08:19:25;;;;;;;1.73;1.48;;;;;;;25.74;34.03;99918.03;4397332;32;33673;-90
2021/09/12 08:21:55;;;;;;;1.85;1.70;;;;;;;25.64;34.56;99922.44;4389632;32;36386;-91
2021/09/12 08:24:43;;;;;;;1.17;1.10;;;;;;;26.24;32.53;99916.41;4377233;32;33016;-88
2021/09/12 08:27:12;;;;;;;2.03;1.42;;;;;;;25.85;33.11;99914.47;4401512;32;32363;-91
2021/09/12 08:29:44;;;;;;;1.55;1.45;;;;;;;26.07;34.31;99911.97;4399369;32;33021;-89
2021/09/12 08:32:18;;;;;;;3.53;2.03;;;;;;;26.37;33.95;99913.44;4399137;32;35681;-91
2021/09/12 08:34:48;;;;;;;1.83;1.27;;;;;;;26.75;34.18;99913.62;4398500;32;35222;-89
2021/09/12 08:37:17;;;;;;;2.47;2.00;;;;;;;26.34;33.80;99910.34;4398278;32;33379;-91
2021/09/12 08:39:46;;;;;;;1.52;1.35;;;;;;;26.66;33.39;99908.81;4386489;32;32351;-89
2021/09/12 08:42:16;;;;;;;1.95;1.75;;;;;;;26.49;32.67;99906.00;4387090;32;35393;-91
2021/09/12 08:44:50;;;;;;;2.10;1.85;;;;;;;27.05;32.91;99897.78;4391942;32;34379;-89
2021/09/12 08:47:21;;;;;;;0.55;0.55;;;;;;;27.16;33.13;99899.63;4378810;32;32894;-90
2021/09/12 08:49:54;;;;;;;1.95;1.48;;;;;;;27.27;31.89;99902.28;4379804;32;34683;-92
2021/09/12 08:52:43;;;;;;;1.05;1.05;;;;;;;27.47;31.93;99907.25;4390592;32;35623;-91
2021/09/12 08:55:13;;;;;;;1.50;1.27;;;;;;;26.92;31.02;99900.00;4398427;32;34397;-90
2021/09/12 08:57:49;;;;;;;2.80;1.50;;;;;;;27.52;31.32;99901.84;4385106;32;31811;-90
2021/09/12 09:00:25;;;;;;;1.27;1.17;;;;;;;27.71;30.68;99900.47;4399788;32;32900;-93
2021/09/12 09:03:03;;;;;;;5.18;1.98;;;;;;;27.34;30.34;99902.09;4390732;32;34770;-91
2021/09/12 09:05:41;;;;;;;1.98;1.80;;;;;;;26.68;29.49;99901.22;4398023;32;34340;-89
2021/09/12 09:08:26;;;;;;;2.45;1.95;;;;;;;26.88;29.79;99887.94;4396827;32;33620;-86
2021/09/12 09:11:02;;;;;;;1.33;1.23;;;;;;;27.64;30.20;99897.09;4397501;32;32248;-90
2021/09/12 09:13:37;;;;;;;1.17;1.08;;;;;;;28.35;27.52;99892.34;4398485;32;34815;-87
2021/09/12 09:16:09;;;;;;;1.77;1.58;;;;;;;28.22;28.92;99887.22;4389944;32;34164;-89
2021/09/12 09:18:39;;;;;;;1.58;1.48;;;;;;;28.18;26.78;99886.09;4380054;32;32868;-89
2021/09/12 09:21:28;;;;;;;1.52;1.42;;;;;;;28.45;26.97;99884.25;4381662;32;34675;-87
2021/09/12 09:24:21;;;;;;;;;;;;;;;28.72;26.73;99889.72;4392956;32;34972;-88
2021/09/12 09:27:07;;;;;;;1.25;1.25;;;;;;;28.59;26.25;99887.41;4390401;32;33126;-90
2021/09/12 09:29:36;;;;;;;2.70;1.65;;;;;;;28.66;26.53;99888.84;4383167;32;32020;-88
2021/09/12 09:32:11;;;;;;;1.65;1.55;;;;;;;28.95;24.11;99886.66;4408823;32;33680;-88
2021/09/12 09:34:41;;;;;;;2.50;1.27;;;;;;;29.09;24.41;99885.16;4399908;32;34974;-90
2021/09/12 09:37:20;;;;;;;0.75;0.75;;;;;;;28.87;26.27;99884.41;4391763;32;33297;-87
2021/09/12 09:39:55;;;;;;;0.80;0.80;;;;;;;28.60;26.09;99872.63;4398185;32;32791;-88
2021/09/12 09:42:34;;;;;;;2.60;1.85;;;;;;;28.58;26.45;99872.03;4390610;32;33402;-88
2021/09/12 09:45:15;;;;;;;1.65;1.55;;;;;;;28.75;26.42;99873.59;4399038;32;35052;-89
2021/09/12 09:47:46;;;;;;;1.17;1.08;;;;;;;28.78;27.28;99867.59;4398933;32;34385;-89
2021/09/12 09:50:17;;;;;;;1.62;1.52;;;;;;;29.24;27.25;99866.91;4383617;32;34492;-88
2021/09/12 09:52:50;;;;;;;2.25;1.48;;;;;;;29.80;25.14;99863.47;4398230;32;34133;-89
2021/09/12 09:55:38;;;;;;;1.92;1.42;;;;;;;29.45;26.77;99865.97;4396267;32;34598;-90
2021/09/12 09:58:09;;;;;;;1.65;1.55;;;;;;;29.32;26.55;99862.84;4388509;32;34145;-88
2021/09/12 10:00:38;;;;;;;1.12;0.98;;;;;;;29.40;25.47;99863.19;4386470;32;33707;-88
2021/09/12 10:03:07;;;;;;;2.67;1.00;;;;;;;29.21;26.80;99866.63;4376264;32;32793;-87
2021/09/12 10:05:36;;;;;;;1.27;1.17;;;;;;;29.07;25.56;99860.75;4381222;32;35735;-88
2021/09/12 10:08:07;;;;;;;1.40;1.05;;;;;;;29.14;26.22;99858.63;4390759;32;35194;-88
2021/09/12 10:10:35;;;;;;;3.78;1.77;;;;;;;29.21;24.77;99856.50;4396312;32;34118;-91
2021/09/12 10:13:04;;;;;;;2.15;1.67;;;;;;;29.01;24.65;99856.34;4400863;32;35334;-89
2021/09/12 10:15:39;;;;;;;1.12;1.05;;;;;;;29.22;24.72;99849.94;4386479;32;35315;-89
2021/09/12 10:18:24;;;;;;;1.48;1.37;;;;;;;29.53;24.74;99842.75;4383382;32;34351;-90
2021/09/12 10:21:29;;;;;;;1.37;1.27;;;;;;;29.04;23.58;99852.22;4394109;32;33408;-89
2021/09/12 10:24:03;;;;;;;2.23;1.17;;;;;;;29.70;22.82;99848.91;4387271;32;32596;-85
2021/09/12 10:26:40;;;;;;;1.42;0.82;;;;;;;29.52;23.21;99841.91;4397702;32;37044;-89
2021/09/12 10:29:54;;;;;;;1.65;1.55;;;;;;;29.69;22.45;99837.09;4398803;32;32837;-90
2021/09/12 10:32:39;;;;;;;1.87;1.33;;;;;;;29.79;21.75;99839.03;4393348;32;33423;-89
2021/09/12 10:35:18;;;;;;;;;;;;;;;29.78;23.01;99832.75;4398434;32;33807;-88
2021/09/12 10:37:53;;;;;;;0.77;0.77;;;;;;;30.17;22.46;99839.50;4400554;32;35284;-88
2021/09/12 10:40:50;;;;;;;1.40;1.30;;;;;;;30.11;23.80;99835.09;4399887;32;34461;-89
2021/09/12 10:43:27;;;;;;;1.67;1.15;;;;;;;29.84;23.49;99831.69;4397410;32;33183;-88
2021/09/12 10:46:05;;;;;;;1.20;1.20;;;;;;;30.06;23.92;99834.25;4399013;32;33705;-87
2021/09/12 10:48:45;;;;;;;1.12;1.12;;;;;;;30.82;21.50;99829.50;4400505;32;35289;-89
2021/09/12 10:51:20;;;;;;;1.60;1.15;;;;;;;29.97;24.31;99833.06;4386105;32;33288;-89
2021/09/12 10:54:09;;;;;;;1.52;1.12;;;;;;;30.12;24.23;99835.91;4398187;32;32136;-88
2021/09/12 10:56:39;;;;;;;3.12;2.03;;;;;;;30.39;22.43;99834.59;4398078;32;34522;-87
2021/09/12 10:59:11;;;;;;;1.00;1.00;;;;;;;30.53;22.68;99827.50;4381394;32;34920;-88
2021/09/12 11:01:52;;;;;;;0.85;0.85;;;;;;;30.91;21.30;99825.09;4410979;32;34516;-90
2021/09/12 11:04:33;;;;;;;1.35;1.25;;;;;;;30.66;23.25;99827.84;4393361;32;34183;-90
2021/09/12 11:07:05;;;;;;;1.80;1.60;;;;;;;30.85;22.98;99814.38;4398197;32;33369;-90
2021/09/12 11:09:42;;;;;;;1.27;1.17;;;;;;;31.09;21.08;99818.22;4399470;32;34230;-91
2021/09/12 11:12:28;;;;;;;14.35;1.48;;;;;;;30.96;22.33;99816.84;4399812;32;35012;-90
2021/09/12 11:14:57;;;;;;;1.92;1.83;;;;;;;30.64;22.89;99808.06;4399115;32;33480;-91
2021/09/12 11:17:27;;;;;;;1.37;1.27;;;;;;;30.54;23.02;99799.78;4385499;32;35204;-89
2021/09/12 11:20:00;;;;;;;4.60;1.60;;;;;;;30.96;22.42;99805.03;4380832;32;34228;-89
2021/09/12 11:22:28;;;;;;;1.73;1.42;;;;;;;31.05;21.63;99801.44;4396759;32;33933;-88
2021/09/12 11:25:04;;;;;;;6.60;1.37;;;;;;;30.95;22.67;99800.66;4398003;32;33879;-88
2021/09/12 11:27:33;;;;;;;1.52;1.37;;;;;;;30.79;22.76;99799.00;4395456;32;32269;-88
2021/09/12 11:30:09;;;;;;;0.70;0.62;;;;;;;31.11;23.41;99785.75;4395700;32;35310;-87
2021/09/12 11:32:49;;;;;;;1.65;1.45;;;;;;;31.28;22.09;99787.16;4399208;32;34943;-89
2021/09/12 11:35:27;;;;;;;0.95;0.93;;;;;;;31.20;23.31;99781.38;4392155;32;34672;-87
2021/09/12 11:38:25;;;;;;;0.77;0.75;;;;;;;31.25;22.41;99782.19;4371176;32;32351;-89
2021/09/12 11:40:57;;;;;;;2.25;1.30;;;;;;;31.82;21.35;99779.03;4397225;32;34762;-89
2021/09/12 11:43:26;;;;;;;0.75;0.75;;;;;;;31.23;21.32;99770.66;4378860;32;33078;-89
2021/09/12 11:46:09;;;;;;;1.25;0.93;;;;;;;31.55;21.60;99773.88;4400890;32;32738;-88
2021/09/12 11:48:37;;;;;;;2.28;1.27;;;;;;;32.09;21.06;99762.91;4380801;32;33215;-88
2021/09/12 11:51:05;;;;;;;1.25;0.95;;;;;;;32.26;21.10;99755.94;4362913;32;35893;-88
2021/09/12 11:53:35;;;;;;;1.00;0.95;;;;;;;32.55;20.28;99750.50;4336654;32;36363;-88
2021/09/12 11:56:11;;;;;;;0.90;0.90;;;;;;;33.06;20.25;99757.22;4330810;32;33673;-88
2021/09/12 11:59:14;;;;;;;2.42;1.77;;;;;;;33.82;19.28;99747.00;4332082;32;34420;-88
2021/09/12 12:02:15;;;;;;;2.90;1.33;;;;;;;34.39;16.92;99734.59;4328614;32;35697;-88
2021/09/12 12:08:26;;;;;;;1.20;1.10;;;;;;;35.38;17.02;99733.94;4030340;27;20069;-76
2021/09/12 12:11:03;;;;;;;1.20;1.10;;;;;;;35.96;15.09;99723.03;4358009;32;34312;-76
2021/09/12 12:13:33;;;;;;;;;;;;;;;36.27;15.84;99724.81;4367689;32;35879;-80
2021/09/12 12:16:02;;;;;;;3.70;1.98;;;;;;;36.66;15.12;99718.59;4355400;32;36441;-80
2021/09/12 12:18:33;;;;;;;2.17;1.87;;;;;;;37.11;14.93;99712.72;4353488;32;33141;-80
2021/09/12 12:21:11;;;;;;;3.17;1.17;;;;;;;37.09;13.90;99705.84;4354546;32;34241;-80
2021/09/12 12:23:41;;;;;;;1.45;0.90;;;;;;;36.96;14.85;99703.97;4366362;32;34983;-80
2021/09/12 12:26:17;;;;;;;1.10;0.98;;;;;;;36.04;15.08;99700.94;4353538;32;33146;-80
2021/09/12 12:28:55;;;;;;;2.33;1.08;;;;;;;35.77;15.45;99705.75;4366254;32;33179;-85
2021/09/12 12:31:24;;;;;;;1.33;1.23;;;;;;;36.15;15.37;99702.38;4346822;32;33982;-82
2021/09/12 12:33:51;;;;;;;1.55;1.27;;;;;;;36.10;15.26;99698.88;4353767;32;35007;-81
2021/09/12 12:36:21;;;;;;;1.23;1.12;;;;;;;36.85;15.34;99697.84;4354151;32;34148;-82
2021/09/12 12:38:50;;;;;;;0.80;0.80;;;;;;;36.03;15.19;99693.78;4368277;32;33468;-79
2021/09/12 12:41:21;;;;;;;6.43;1.05;;;;;;;36.50;15.52;99695.16;4367354;32;34642;-81